Time;durP1;ratioP1;P1;durP2;ratioP2;P2;SDS_P1;SDS_P2;PMS_P1;PMS_P2;Temp;Humidity;BMP_temperature;BMP_pressure;BME280_temperature;BME280_humidity;BME280_pressure;Samples;Min_cycle;Max_cycle;Signal;HPM_P1;HPM_P2
2024/01/25 00:02:15;;;;;;;41.72;8.48;;;;;;;9.74;91.58;102232.66;5047134;28;20400;-62
2024/01/25 00:04:41;;;;;;;36.50;9.35;;;;;;;9.68;92.52;102231.69;5034713;28;20033;-62
2024/01/25 00:07:08;;;;;;;51.65;7.97;;;;;;;9.67;92.65;102234.28;5047675;28;20048;-62
2024/01/25 00:09:33;;;;;;;34.90;6.88;;;;;;;9.59;93.19;102234.09;5049569;28;20033;-62
2024/01/25 00:11:59;;;;;;;56.75;8.52;;;;;;;9.65;93.66;102238.50;5052383;28;20514;-63
2024/01/25 00:14:24;;;;;;;43.17;8.00;;;;;;;9.65;93.41;102221.31;5032457;28;20124;-68
2024/01/25 00:16:49;;;;;;;35.33;7.85;;;;;;;9.58;93.93;102226.34;5034405;28;20025;-68
2024/01/25 00:19:15;;;;;;;32.92;6.88;;;;;;;9.58;94.34;102228.94;5030596;28;20081;-68
2024/01/25 00:21:44;;;;;;;44.38;8.38;;;;;;;9.55;93.88;102229.72;5046252;28;20033;-67
2024/01/25 00:24:12;;;;;;;42.72;8.23;;;;;;;9.58;93.66;102213.44;5037093;28;20041;-68
2024/01/25 00:26:37;;;;;;;35.33;7.70;;;;;;;9.54;94.18;102214.19;5027166;28;20416;-68
2024/01/25 00:29:02;;;;;;;43.38;8.35;;;;;;;9.51;94.81;102219.28;5031213;28;20025;-67
2024/01/25 00:31:28;;;;;;;56.22;9.20;;;;;;;9.53;95.12;102220.19;5050216;28;20044;-59
2024/01/25 00:33:53;;;;;;;31.50;7.93;;;;;;;9.63;94.21;102216.97;5030374;28;20115;-59
2024/01/25 00:36:19;;;;;;;38.22;7.82;;;;;;;9.59;94.45;102228.06;5008062;28;20366;-59
2024/01/25 00:38:45;;;;;;;46.22;7.28;;;;;;;9.55;94.70;102234.88;5029821;28;20033;-59
2024/01/25 00:41:17;;;;;;;38.05;7.90;;;;;;;9.52;94.89;102231.38;5029149;28;20128;-60
2024/01/25 00:43:42;;;;;;;48.13;8.80;;;;;;;9.51;95.01;102220.16;5029590;28;20484;-59
2024/01/25 00:46:08;;;;;;;40.95;9.07;;;;;;;9.49;94.72;102227.03;5048742;28;20040;-60
2024/01/25 00:48:34;;;;;;;42.55;8.35;;;;;;;9.50;95.53;102226.16;5049640;28;20060;-64
2024/01/25 00:50:59;;;;;;;39.72;7.75;;;;;;;9.53;95.06;102222.75;5052089;28;20038;-63
2024/01/25 00:53:25;;;;;;;45.08;7.20;;;;;;;9.53;94.94;102228.78;5032655;28;20213;-64
2024/01/25 00:55:51;;;;;;;45.50;9.65;;;;;;;9.55;94.89;102228.84;5030092;28;20436;-63
2024/01/25 00:58:17;;;;;;;49.13;8.93;;;;;;;9.52;94.41;102223.63;5049325;28;20083;-63
2024/01/25 01:00:43;;;;;;;47.05;8.15;;;;;;;9.46;94.93;102232.13;5033994;28;20041;-63
2024/01/25 01:03:09;;;;;;;38.78;7.40;;;;;;;9.49;95.33;102223.56;5029119;28;20030;-63
2024/01/25 01:05:35;;;;;;;39.72;10.05;;;;;;;9.41;95.23;102227.69;5028116;28;20053;-63
2024/01/25 01:08:01;;;;;;;45.13;9.07;;;;;;;9.38;95.60;102249.13;5012508;28;20138;-63
2024/01/25 01:10:26;;;;;;;46.45;8.27;;;;;;;9.35;96.25;102253.38;5050945;28;20029;-63
2024/01/25 01:12:53;;;;;;;42.00;8.68;;;;;;;9.33;96.24;102242.16;5036412;28;20061;-63
2024/01/25 01:15:18;;;;;;;46.63;9.23;;;;;;;9.28;96.61;102257.56;5041322;28;20128;-63
2024/01/25 01:17:44;;;;;;;36.88;8.18;;;;;;;9.30;95.75;102253.28;5041425;28;20458;-68
2024/01/25 01:20:09;;;;;;;42.00;9.07;;;;;;;9.28;96.40;102254.09;5009748;28;20030;-67
2024/01/25 01:22:35;;;;;;;49.78;10.00;;;;;;;9.15;96.82;102260.69;5029193;28;20041;-67
2024/01/25 01:25:00;;;;;;;43.33;7.88;;;;;;;9.21;97.59;102262.53;5022150;28;20032;-67
2024/01/25 01:27:25;;;;;;;44.75;8.32;;;;;;;9.25;97.75;102274.69;5023057;28;20551;-67
2024/01/25 01:29:51;;;;;;;48.55;9.88;;;;;;;9.12;97.70;102268.38;5036492;28;20044;-67
2024/01/25 01:32:16;;;;;;;45.75;8.48;;;;;;;9.08;98.24;102266.56;5045502;28;20041;-68
2024/01/25 01:34:42;;;;;;;44.20;8.43;;;;;;;9.03;98.63;102269.06;5028130;28;20091;-68
2024/01/25 01:37:07;;;;;;;41.75;8.18;;;;;;;9.05;98.05;102271.69;5028583;28;20053;-67
2024/01/25 01:39:32;;;;;;;49.28;10.30;;;;;;;9.01;98.88;102277.59;5041856;28;20120;-67
2024/01/25 01:41:58;;;;;;;39.35;7.35;;;;;;;8.90;99.04;102271.34;5039524;28;20447;-67
2024/01/25 01:44:23;;;;;;;48.45;8.82;;;;;;;8.84;99.72;102269.47;5032119;28;20045;-67
2024/01/25 01:46:49;;;;;;;47.42;9.05;;;;;;;8.85;99.29;102273.78;5027186;28;20116;-62
2024/01/25 01:49:14;;;;;;;36.00;8.23;;;;;;;8.82;100.00;102278.88;5028394;28;20110;-62
2024/01/25 01:51:42;;;;;;;44.63;10.80;;;;;;;8.79;100.00;102275.34;5042855;28;20033;-62
2024/01/25 01:54:08;;;;;;;44.85;7.57;;;;;;;8.66;100.00;102278.50;5037540;28;20045;-62
2024/01/25 01:56:35;;;;;;;40.00;7.57;;;;;;;8.65;100.00;102281.91;5026765;28;20433;-62
2024/01/25 01:59:20;;;;;;;46.38;9.10;;;;;;;8.53;100.00;102277.34;5025043;28;20021;-62
2024/01/25 02:01:45;;;;;;;51.75;8.80;;;;;;;8.47;100.00;102272.91;5026610;28;20068;-62
2024/01/25 02:04:11;;;;;;;41.17;8.10;;;;;;;8.43;100.00;102281.38;5047031;28;20112;-62
2024/01/25 02:06:36;;;;;;;44.78;8.07;;;;;;;8.43;100.00;102280.50;5025618;28;20030;-62
2024/01/25 02:09:02;;;;;;;51.95;9.30;;;;;;;8.43;100.00;102275.34;5019054;28;20648;-62
2024/01/25 02:11:28;;;;;;;31.80;7.75;;;;;;;8.37;100.00;102270.94;5048907;28;20049;-62
2024/01/25 02:13:53;;;;;;;49.00;8.15;;;;;;;8.38;100.00;102270.09;5052271;28;20028;-62
2024/01/25 02:16:19;;;;;;;41.97;9.00;;;;;;;8.40;100.00;102276.16;5048569;28;20021;-62
2024/01/25 02:18:45;;;;;;;51.45;8.70;;;;;;;8.31;100.00;102275.06;5035390;28;20029;-62
2024/01/25 02:21:10;;;;;;;50.35;8.90;;;;;;;8.29;100.00;102287.03;5026486;28;20571;-62
2024/01/25 02:23:36;;;;;;;45.92;8.75;;;;;;;8.23;100.00;102274.88;5033834;28;20411;-62
2024/01/25 02:26:01;;;;;;;43.67;8.07;;;;;;;8.15;100.00;102280.66;5045150;28;20071;-62
2024/01/25 02:28:27;;;;;;;40.72;8.50;;;;;;;8.04;100.00;102284.69;5028338;28;20560;-62
2024/01/25 02:30:52;;;;;;;37.42;7.97;;;;;;;8.05;100.00;102283.81;5009725;28;20045;-62
2024/01/25 02:33:18;;;;;;;50.10;8.40;;;;;;;7.97;100.00;102292.25;5027375;28;20041;-62
2024/01/25 02:35:43;;;;;;;47.88;8.35;;;;;;;7.88;100.00;102293.69;5036782;28;20072;-62
2024/01/25 02:38:08;;;;;;;40.15;8.10;;;;;;;7.89;100.00;102298.03;5045339;28;20442;-62
2024/01/25 02:40:34;;;;;;;46.95;7.85;;;;;;;7.80;100.00;102301.19;5030147;28;20097;-62
2024/01/25 02:42:59;;;;;;;42.92;7.97;;;;;;;7.77;100.00;102301.09;5048048;28;20047;-62
2024/01/25 02:45:24;;;;;;;40.95;8.48;;;;;;;7.69;100.00;102304.31;5036979;28;20368;-62
2024/01/25 02:47:50;;;;;;;41.63;10.00;;;;;;;7.67;100.00;102309.44;5036577;28;20049;-59
2024/01/25 02:50:15;;;;;;;43.70;8.80;;;;;;;7.70;100.00;102309.50;5043956;28;20041;-60
2024/01/25 02:52:41;;;;;;;48.85;8.48;;;;;;;7.61;100.00;102309.25;5031121;28;20024;-59
2024/01/25 02:55:07;;;;;;;44.35;8.95;;;;;;;7.57;100.00;102315.13;5027170;28;20073;-59
2024/01/25 02:57:33;;;;;;;53.42;8.48;;;;;;;7.65;100.00;102323.97;5027220;28;20392;-59
2024/01/25 02:59:58;;;;;;;47.22;7.22;;;;;;;7.65;100.00;102321.38;5036019;28;20608;-59
2024/01/25 03:02:24;;;;;;;58.10;7.70;;;;;;;7.67;100.00;102324.00;5042854;28;20043;-61
2024/01/25 03:04:49;;;;;;;46.33;8.40;;;;;;;7.72;100.00;102323.28;5027554;28;20064;-60
2024/01/25 03:07:14;;;;;;;41.92;7.35;;;;;;;7.64;100.00;102316.19;5046187;28;20066;-59
2024/01/25 03:09:40;;;;;;;52.60;8.52;;;;;;;7.62;100.00;102321.31;5046585;28;20040;-60
2024/01/25 03:12:06;;;;;;;49.33;9.93;;;;;;;7.72;100.00;102320.72;5043416;28;20638;-59
2024/01/25 03:14:31;;;;;;;54.55;11.15;;;;;;;7.66;100.00;102317.09;5033019;28;20396;-59
2024/01/25 03:16:57;;;;;;;47.17;8.63;;;;;;;7.60;100.00;102319.47;5046468;28;20068;-59
2024/01/25 03:19:26;;;;;;;38.50;7.40;;;;;;;7.61;100.00;102311.81;5010239;28;20091;-59
2024/01/25 03:21:52;;;;;;;39.10;8.60;;;;;;;7.54;100.00;102306.44;5027011;28;20133;-59
2024/01/25 03:24:17;;;;;;;51.75;9.52;;;;;;;7.56;100.00;102307.38;5038597;28;20119;-59
2024/01/25 03:26:43;;;;;;;52.47;8.52;;;;;;;7.51;100.00;102304.66;5038822;28;20033;-59
2024/01/25 03:29:08;;;;;;;48.97;9.68;;;;;;;7.53;100.00;102303.03;5031052;28;20021;-63
2024/01/25 03:31:35;;;;;;;52.42;8.95;;;;;;;7.50;100.00;102300.38;5030438;28;20072;-63
2024/01/25 03:34:01;;;;;;;58.58;9.68;;;;;;;7.56;100.00;102302.25;5045933;28;20037;-63
2024/01/25 03:36:26;;;;;;;46.60;8.90;;;;;;;7.49;100.00;102298.63;5038054;28;20038;-63
2024/01/25 03:38:52;;;;;;;57.33;9.77;;;;;;;7.49;100.00;102301.19;5038680;28;20119;-63
2024/01/25 03:41:17;;;;;;;60.67;9.63;;;;;;;7.53;100.00;102304.72;5046956;28;20029;-63
2024/01/25 03:43:44;;;;;;;53.95;10.05;;;;;;;7.45;100.00;102307.94;5034660;28;20040;-63
2024/01/25 03:46:10;;;;;;;42.55;9.10;;;;;;;7.41;100.00;102306.13;5030742;28;20032;-64
2024/01/25 03:48:35;;;;;;;53.80;11.35;;;;;;;7.41;100.00;102306.13;5044496;28;20112;-63
2024/01/25 03:51:00;;;;;;;47.38;9.23;;;;;;;7.32;100.00;102299.84;5040935;28;20057;-63
2024/01/25 03:53:26;;;;;;;46.65;8.80;;;;;;;7.35;100.00;102302.50;5037034;28;20048;-63
2024/01/25 03:55:51;;;;;;;48.95;8.23;;;;;;;7.39;100.00;102309.44;5052163;28;20036;-63
2024/01/25 03:58:20;;;;;;;49.28;10.15;;;;;;;7.42;100.00;102310.41;5030890;28;20041;-63
2024/01/25 04:00:46;;;;;;;39.22;8.82;;;;;;;7.36;100.00;102309.34;5030179;28;20064;-63
2024/01/25 04:03:11;;;;;;;47.40;9.63;;;;;;;7.36;100.00;102317.06;5029960;28;20033;-63
2024/01/25 04:05:37;;;;;;;59.13;10.10;;;;;;;7.26;100.00;102321.09;5035601;28;20025;-63
2024/01/25 04:08:03;;;;;;;52.90;9.48;;;;;;;7.26;100.00;102323.69;5050092;28;20112;-63
2024/01/25 04:10:28;;;;;;;65.65;10.48;;;;;;;7.36;100.00;102324.78;5052440;28;20033;-63
2024/01/25 04:12:54;;;;;;;51.67;9.65;;;;;;;7.37;100.00;102327.44;5053381;28;20430;-63
2024/01/25 04:15:19;;;;;;;51.45;10.68;;;;;;;7.37;100.00;102345.44;5050317;28;20040;-65
2024/01/25 04:17:44;;;;;;;47.72;10.48;;;;;;;7.39;100.00;102343.78;5042272;28;20075;-63
2024/01/25 04:20:10;;;;;;;45.88;9.90;;;;;;;7.42;100.00;102343.88;5029341;28;20014;-62
2024/01/25 04:22:36;;;;;;;52.08;9.02;;;;;;;7.43;100.00;102337.91;5030429;28;20025;-63
2024/01/25 04:25:02;;;;;;;46.78;9.55;;;;;;;7.39;100.00;102340.31;5029806;28;20037;-64
2024/01/25 04:27:27;;;;;;;48.10;9.68;;;;;;;7.36;100.00;102335.09;5041574;28;20037;-63
2024/01/25 04:29:53;;;;;;;50.33;9.25;;;;;;;7.34;100.00;102344.47;5040917;28;20412;-64
2024/01/25 04:32:18;;;;;;;48.60;9.93;;;;;;;7.31;100.00;102352.09;5030028;28;20033;-63
2024/01/25 04:34:46;;;;;;;44.63;9.65;;;;;;;7.31;100.00;102352.09;5029780;28;20029;-63
2024/01/25 04:37:11;;;;;;;59.60;9.80;;;;;;;7.43;100.00;102362.75;5048358;28;20021;-63
2024/01/25 04:39:36;;;;;;;62.45;12.25;;;;;;;7.36;100.00;102353.97;5034498;28;20044;-63
2024/01/25 04:42:02;;;;;;;61.75;10.73;;;;;;;7.37;100.00;102360.00;5025878;28;20079;-63
2024/01/25 04:44:27;;;;;;;54.70;10.43;;;;;;;7.28;100.00;102355.44;5037999;28;20037;-62
2024/01/25 04:46:54;;;;;;;45.70;9.77;;;;;;;7.20;100.00;102353.47;5050299;28;20029;-63
2024/01/25 04:49:19;;;;;;;43.15;8.00;;;;;;;7.02;100.00;102365.72;5049591;28;20385;-63
2024/01/25 04:51:44;;;;;;;40.25;9.32;;;;;;;6.91;100.00;102362.81;5049124;28;20047;-63
2024/01/25 04:54:12;;;;;;;51.58;10.27;;;;;;;6.86;100.00;102359.22;5042131;28;20531;-63
2024/01/25 04:56:38;;;;;;;51.47;10.57;;;;;;;6.82;100.00;102344.53;5025871;28;20071;-63
2024/01/25 04:59:03;;;;;;;53.95;11.63;;;;;;;6.74;100.00;102349.41;5029369;28;20423;-63
2024/01/25 05:01:28;;;;;;;63.28;10.07;;;;;;;6.73;100.00;102357.09;5029791;28;20036;-63
2024/01/25 05:03:54;;;;;;;52.60;8.88;;;;;;;6.73;100.00;102347.66;5048325;28;20044;-63
2024/01/25 05:06:19;;;;;;;37.35;9.18;;;;;;;6.64;100.00;102349.97;5036247;28;20034;-63
2024/01/25 05:08:44;;;;;;;59.00;11.57;;;;;;;6.62;100.00;102349.00;5035969;28;20553;-63
2024/01/25 05:11:10;;;;;;;47.28;9.35;;;;;;;6.66;100.00;102344.84;5054390;28;20594;-63
2024/01/25 05:13:35;;;;;;;43.88;10.45;;;;;;;6.61;100.00;102347.28;5049930;28;20074;-63
2024/01/25 05:16:01;;;;;;;67.28;9.80;;;;;;;6.70;100.00;102342.44;5031267;28;20037;-63
2024/01/25 05:18:26;;;;;;;63.25;10.60;;;;;;;6.65;100.00;102351.69;5044503;28;20039;-63
2024/01/25 05:20:51;;;;;;;48.10;10.43;;;;;;;6.70;100.00;102351.84;5037016;28;20044;-63
2024/01/25 05:23:17;;;;;;;47.45;9.20;;;;;;;6.69;100.00;102353.53;5028869;28;20132;-64
2024/01/25 05:25:42;;;;;;;54.38;9.50;;;;;;;6.70;100.00;102357.00;5029351;28;20538;-64
2024/01/25 05:28:07;;;;;;;52.03;8.32;;;;;;;6.73;100.00;102357.94;5046913;28;20032;-63
2024/01/25 05:30:34;;;;;;;52.47;8.80;;;;;;;6.68;100.00;102354.34;5034495;28;20040;-63
2024/01/25 05:32:59;;;;;;;60.42;10.13;;;;;;;6.70;100.00;102363.00;5037665;28;20681;-63
2024/01/25 05:35:24;;;;;;;49.08;9.35;;;;;;;6.69;100.00;102360.38;5043805;28;20057;-64
2024/01/25 05:37:50;;;;;;;55.15;10.35;;;;;;;6.65;100.00;102350.81;5028637;28;20125;-63
2024/01/25 05:40:16;;;;;;;56.30;9.80;;;;;;;6.61;100.00;102357.56;5047689;28;20029;-63
2024/01/25 05:42:41;;;;;;;38.60;8.35;;;;;;;6.64;100.00;102364.50;5037253;28;20492;-63
2024/01/25 05:45:08;;;;;;;47.53;9.63;;;;;;;6.61;100.00;102359.25;5028991;28;20030;-63
2024/01/25 05:47:34;;;;;;;45.47;8.45;;;;;;;6.47;100.00;102358.78;5037386;28;20036;-63
2024/01/25 05:49:59;;;;;;;55.65;9.75;;;;;;;6.35;100.00;102358.34;5045960;28;20025;-63
2024/01/25 05:52:25;;;;;;;46.63;8.48;;;;;;;6.26;100.00;102365.75;5030075;28;20025;-63
2024/01/25 05:54:50;;;;;;;46.45;9.55;;;;;;;6.17;100.00;102366.31;5048212;28;20044;-63
2024/01/25 05:57:17;;;;;;;40.00;7.38;;;;;;;6.06;100.00;102364.19;5036549;28;20108;-64
2024/01/25 05:59:43;;;;;;;46.95;9.95;;;;;;;6.00;100.00;102369.97;5034535;28;20709;-63
2024/01/25 06:02:09;;;;;;;50.38;9.15;;;;;;;5.98;100.00;102378.44;5045806;28;20048;-63
2024/01/25 06:04:34;;;;;;;49.38;9.80;;;;;;;5.93;100.00;102377.41;5028495;28;20025;-63
2024/01/25 06:06:59;;;;;;;48.92;8.27;;;;;;;5.97;100.00;102371.56;5044024;28;20025;-63
2024/01/25 06:09:25;;;;;;;48.75;9.40;;;;;;;5.97;100.00;102385.28;5034662;28;20041;-63
2024/01/25 06:11:51;;;;;;;49.42;9.93;;;;;;;5.96;100.00;102383.50;5040558;28;20025;-63
2024/01/25 06:14:16;;;;;;;54.85;9.95;;;;;;;5.98;100.00;102383.59;5044907;28;20045;-63
2024/01/25 06:16:42;;;;;;;71.25;10.20;;;;;;;6.01;100.00;102386.25;5031173;28;20028;-63
2024/01/25 06:19:08;;;;;;;51.75;11.45;;;;;;;5.90;100.00;102375.63;5045831;28;20484;-63
2024/01/25 06:21:37;;;;;;;54.95;10.45;;;;;;;5.97;100.00;102376.69;5033698;28;20091;-63
2024/01/25 06:24:03;;;;;;;51.67;10.82;;;;;;;5.87;100.00;102383.22;5037031;28;20075;-63
2024/01/25 06:26:28;;;;;;;64.78;10.18;;;;;;;5.88;100.00;102389.19;5041866;28;20516;-63
2024/01/25 06:28:54;;;;;;;59.83;10.05;;;;;;;5.90;100.00;102401.28;5023653;28;20092;-62
2024/01/25 06:31:19;;;;;;;70.32;12.10;;;;;;;5.86;100.00;102393.41;5027887;28;20026;-63
2024/01/25 06:33:47;;;;;;;39.45;8.02;;;;;;;5.85;100.00;102414.72;5042398;28;20108;-63
2024/01/25 06:36:15;;;;;;;42.50;9.10;;;;;;;5.81;100.00;102413.78;5036218;28;20084;-64
2024/01/25 06:38:40;;;;;;;48.20;8.57;;;;;;;5.74;100.00;102419.47;5033510;28;20087;-63
2024/01/25 06:41:05;;;;;;;53.03;9.43;;;;;;;5.76;100.00;102415.28;5044411;28;20017;-63
2024/01/25 06:43:31;;;;;;;51.55;9.30;;;;;;;5.76;100.00;102415.28;5029303;28;20032;-63
2024/01/25 06:45:56;;;;;;;44.72;9.65;;;;;;;5.71;100.00;102411.66;5044589;28;20029;-63
2024/01/25 06:48:21;;;;;;;51.58;9.73;;;;;;;5.66;100.00;102414.06;5047446;28;20029;-63
2024/01/25 06:50:47;;;;;;;53.88;8.65;;;;;;;5.69;100.00;102418.44;5039293;28;20033;-63
2024/01/25 06:53:12;;;;;;;51.00;9.45;;;;;;;5.63;100.00;102416.53;5027194;28;20034;-63
2024/01/25 06:55:37;;;;;;;51.58;10.27;;;;;;;5.63;100.00;102424.22;5030620;28;20049;-63
2024/01/25 06:58:03;;;;;;;42.08;9.27;;;;;;;5.61;100.00;102425.84;5027458;28;20408;-63
2024/01/25 07:00:28;;;;;;;46.92;8.95;;;;;;;5.57;100.00;102430.81;5022361;28;20040;-63
2024/01/25 07:02:54;;;;;;;43.85;8.85;;;;;;;5.52;100.00;102440.88;5035494;28;20053;-63
2024/01/25 07:05:19;;;;;;;50.92;8.48;;;;;;;5.52;100.00;102443.44;5047901;28;20038;-63
2024/01/25 07:07:45;;;;;;;39.45;8.15;;;;;;;5.45;100.00;102440.59;5031380;28;20049;-63
2024/01/25 07:10:10;;;;;;;45.97;9.18;;;;;;;5.47;100.00;102439.81;5030584;28;20645;-62
2024/01/25 07:12:35;;;;;;;45.00;9.70;;;;;;;5.44;100.00;102429.44;5034335;28;20033;-63
2024/01/25 07:15:01;;;;;;;36.72;8.75;;;;;;;5.37;100.00;102429.16;5040825;28;20108;-63
2024/01/25 07:17:27;;;;;;;45.17;9.15;;;;;;;5.32;100.00;102433.22;5029242;28;20037;-62
2024/01/25 07:19:52;;;;;;;37.13;7.60;;;;;;;5.26;100.00;102440.66;5034264;28;20034;-63
2024/01/25 07:22:18;;;;;;;37.38;7.97;;;;;;;5.25;100.00;102432.09;5031170;28;20049;-63
2024/01/25 07:24:44;;;;;;;39.03;7.63;;;;;;;5.22;100.00;102437.97;5024514;28;20044;-63
2024/01/25 07:27:10;;;;;;;42.47;8.82;;;;;;;5.16;100.00;102436.88;5038885;28;20033;-63
2024/01/25 07:29:36;;;;;;;31.23;8.50;;;;;;;5.13;100.00;102434.19;5044284;28;20515;-63
2024/01/25 07:32:02;;;;;;;44.40;7.78;;;;;;;5.13;100.00;102440.16;5030721;28;20018;-63
2024/01/25 07:34:27;;;;;;;38.50;8.18;;;;;;;5.14;100.00;102443.59;5032271;28;20033;-64
2024/01/25 07:36:53;;;;;;;43.50;8.93;;;;;;;5.13;100.00;102439.31;5046520;28;20033;-63
2024/01/25 07:39:18;;;;;;;42.22;9.30;;;;;;;5.13;100.00;102445.28;5050402;28;20049;-63
2024/01/25 07:41:43;;;;;;;37.40;7.57;;;;;;;5.11;100.00;102451.19;5043639;28;20033;-63
2024/01/25 07:44:09;;;;;;;37.45;8.68;;;;;;;5.10;100.00;102455.41;5030657;28;20052;-64
2024/01/25 07:46:34;;;;;;;41.30;9.52;;;;;;;5.13;100.00;102459.81;5035317;28;20155;-64
2024/01/25 07:48:59;;;;;;;54.45;10.02;;;;;;;5.13;100.00;102452.13;5027206;28;20045;-63
2024/01/25 07:51:28;;;;;;;41.35;8.55;;;;;;;5.15;100.00;102450.50;5042813;28;20519;-63
2024/01/25 07:53:54;;;;;;;47.17;10.55;;;;;;;5.21;100.00;102461.00;5042622;28;20029;-63
2024/01/25 07:56:21;;;;;;;42.42;9.02;;;;;;;5.25;100.00;102460.28;5030893;28;20488;-63
2024/01/25 07:58:48;;;;;;;38.63;9.23;;;;;;;5.28;100.00;102445.03;5030890;28;20473;-63
2024/01/25 08:01:18;;;;;;;36.65;9.57;;;;;;;5.37;100.00;102449.69;5030651;28;20036;-63
2024/01/25 08:03:43;;;;;;;53.65;11.18;;;;;;;5.46;100.00;102437.19;5045235;28;20033;-63
2024/01/25 08:06:09;;;;;;;52.60;12.07;;;;;;;5.60;100.00;102444.63;5039627;28;20048;-63
2024/01/25 08:08:34;;;;;;;49.15;10.55;;;;;;;5.68;100.00;102443.22;5030579;28;20171;-63
2024/01/25 08:10:59;;;;;;;46.78;10.45;;;;;;;5.77;100.00;102437.56;5034147;28;20392;-64
2024/01/25 08:13:28;;;;;;;37.80;11.80;;;;;;;5.85;100.00;102431.00;5050316;28;20058;-63
2024/01/25 08:15:53;;;;;;;39.13;9.32;;;;;;;5.97;100.00;102436.59;5032932;28;20504;-64
2024/01/25 08:18:19;;;;;;;38.80;9.35;;;;;;;6.06;100.00;102439.50;5040963;28;20071;-63
2024/01/25 08:20:44;;;;;;;33.55;9.98;;;;;;;6.15;100.00;102439.84;5039367;28;20139;-63
2024/01/25 08:23:10;;;;;;;42.97;10.18;;;;;;;6.26;100.00;102445.34;5032807;28;20028;-63
2024/01/25 08:25:36;;;;;;;38.15;9.75;;;;;;;6.37;100.00;102453.44;5030273;28;20467;-63
2024/01/25 08:28:01;;;;;;;31.30;9.65;;;;;;;6.47;100.00;102447.81;5044965;28;20037;-63
2024/01/25 08:30:26;;;;;;;30.58;8.77;;;;;;;6.57;100.00;102450.75;5036807;28;20029;-63
2024/01/25 08:32:52;;;;;;;39.10;9.77;;;;;;;6.68;100.00;102440.84;5014992;28;20038;-63
2024/01/25 08:35:17;;;;;;;35.08;9.70;;;;;;;6.75;100.00;102425.69;5033108;28;20097;-63
2024/01/25 08:37:43;;;;;;;38.10;9.85;;;;;;;6.84;100.00;102423.44;5047172;28;20420;-63
2024/01/25 08:40:09;;;;;;;28.75;8.48;;;;;;;6.95;100.00;102420.31;5028336;28;20037;-64
2024/01/25 08:42:35;;;;;;;37.20;9.63;;;;;;;7.03;100.00;102424.88;5043477;28;20048;-63
2024/01/25 08:45:00;;;;;;;31.55;8.98;;;;;;;7.10;100.00;102423.38;5038034;28;20486;-63
2024/01/25 08:47:26;;;;;;;27.20;8.77;;;;;;;7.17;100.00;102428.81;5032986;28;20040;-63
2024/01/25 08:49:51;;;;;;;35.72;8.95;;;;;;;7.26;100.00;102421.41;5026211;28;20117;-63
2024/01/25 08:52:17;;;;;;;37.35;8.82;;;;;;;7.35;100.00;102426.84;5049845;28;20102;-63
2024/01/25 08:54:42;;;;;;;39.45;8.93;;;;;;;7.44;100.00;102434.84;5034094;28;20095;-63
2024/01/25 08:57:08;;;;;;;36.67;9.45;;;;;;;7.54;100.00;102420.53;5029215;28;20037;-64
2024/01/25 08:59:37;;;;;;;32.25;8.65;;;;;;;7.61;100.00;102422.47;5029143;28;20079;-63
2024/01/25 09:02:04;;;;;;;39.72;9.18;;;;;;;7.69;100.00;102415.84;5030294;28;20033;-63
2024/01/25 09:04:29;;;;;;;34.72;8.70;;;;;;;7.79;100.00;102412.72;5043961;28;20036;-63
2024/01/25 09:06:54;;;;;;;39.50;10.10;;;;;;;7.85;100.00;102402.59;5031501;28;20116;-63
2024/01/25 09:09:20;;;;;;;30.27;9.57;;;;;;;7.95;100.00;102411.47;5040801;28;20063;-63
2024/01/25 09:11:45;;;;;;;34.08;8.55;;;;;;;8.02;100.00;102409.09;5041830;28;20034;-64
2024/01/25 09:14:10;;;;;;;31.17;8.23;;;;;;;8.12;100.00;102411.94;5028674;28;20026;-64
2024/01/25 09:16:38;;;;;;;33.42;7.93;;;;;;;8.19;99.60;102411.28;5033119;28;20029;-63
2024/01/25 09:19:03;;;;;;;30.63;8.18;;;;;;;8.26;98.80;102413.19;5046145;28;20901;-64
2024/01/25 09:21:29;;;;;;;47.28;9.18;;;;;;;8.31;98.79;102409.00;5035411;28;20053;-64
2024/01/25 09:23:54;;;;;;;26.67;7.63;;;;;;;8.35;98.75;102411.72;5037499;28;20037;-64
2024/01/25 09:26:19;;;;;;;31.85;8.27;;;;;;;8.33;97.55;102408.25;5055471;28;20034;-63
2024/01/25 09:28:45;;;;;;;29.48;8.13;;;;;;;8.36;97.46;102404.88;5025327;28;20128;-64
2024/01/25 09:31:10;;;;;;;42.70;8.15;;;;;;;8.38;97.42;102406.66;5033083;28;20033;-64
2024/01/25 09:33:35;;;;;;;36.88;7.70;;;;;;;8.39;96.63;102410.13;5027426;28;20559;-63
2024/01/25 09:36:01;;;;;;;36.28;8.85;;;;;;;8.46;96.08;102414.59;5037988;28;20033;-63
2024/01/25 09:38:27;;;;;;;35.80;7.38;;;;;;;8.53;96.18;102432.84;5048593;28;20399;-63
2024/01/25 09:40:52;;;;;;;34.85;8.63;;;;;;;8.59;95.61;102432.13;5049117;28;20035;-65
2024/01/25 09:43:19;;;;;;;34.92;9.20;;;;;;;8.66;94.05;102416.00;5048320;28;20029;-64
2024/01/25 09:45:46;;;;;;;47.55;9.57;;;;;;;8.78;94.27;102412.84;5036989;28;20040;-64
2024/01/25 09:48:13;;;;;;;34.58;8.00;;;;;;;8.84;93.63;102411.28;5027670;28;20408;-63
2024/01/25 09:50:39;;;;;;;32.53;6.78;;;;;;;8.96;94.18;102413.31;5028303;28;20575;-64
2024/01/25 09:53:06;;;;;;;22.73;7.97;;;;;;;9.04;93.24;102406.63;5029932;28;20021;-63
2024/01/25 09:55:38;;;;;;;39.20;9.13;;;;;;;9.08;93.17;102409.28;5049081;28;20410;-64
2024/01/25 09:58:07;;;;;;;36.55;8.75;;;;;;;9.14;93.05;102409.44;5030087;28;20128;-64
2024/01/25 10:00:33;;;;;;;27.60;6.75;;;;;;;9.19;92.80;102416.44;5041387;28;20515;-63
2024/01/25 10:02:58;;;;;;;34.03;8.40;;;;;;;9.20;90.60;102389.81;5048758;28;20049;-64
2024/01/25 10:05:23;;;;;;;36.78;9.65;;;;;;;9.26;89.57;102390.78;5048314;28;20123;-64
2024/01/25 10:07:49;;;;;;;38.22;8.10;;;;;;;9.32;89.65;102406.41;5047470;28;20537;-64
2024/01/25 10:10:14;;;;;;;37.42;8.30;;;;;;;9.39;90.12;102417.75;5027613;28;20456;-63
2024/01/25 10:12:42;;;;;;;37.28;8.50;;;;;;;9.45;90.16;102417.91;5041366;28;20381;-66
2024/01/25 10:15:09;;;;;;;33.50;8.45;;;;;;;9.39;89.13;102410.91;5037915;28;20025;-63
2024/01/25 10:17:35;;;;;;;36.00;8.27;;;;;;;9.47;89.20;102416.22;5024881;28;20116;-63
2024/01/25 10:20:00;;;;;;;34.40;7.95;;;;;;;9.57;88.66;102410.44;5027683;28;20535;-64
2024/01/25 10:22:26;;;;;;;36.80;9.48;;;;;;;9.54;87.89;102394.88;5051195;28;20017;-63
2024/01/25 10:24:53;;;;;;;33.70;7.55;;;;;;;9.64;87.53;102379.63;5032861;28;20412;-64
2024/01/25 10:27:19;;;;;;;31.80;7.57;;;;;;;9.71;87.09;102367.72;5037231;28;20048;-63
2024/01/25 10:29:44;;;;;;;35.83;8.13;;;;;;;9.75;85.75;102366.09;5039974;28;20030;-63
2024/01/25 10:32:10;;;;;;;26.13;7.20;;;;;;;9.76;85.75;102360.97;5028108;28;20029;-63
2024/01/25 10:34:36;;;;;;;36.55;8.77;;;;;;;9.79;85.63;102360.16;5028440;28;20083;-63
2024/01/25 10:37:14;;;;;;;32.03;7.78;;;;;;;9.83;85.35;102367.09;5024196;28;20067;-64
2024/01/25 10:39:41;;;;;;;37.25;8.10;;;;;;;9.88;85.13;102375.84;5020813;28;20037;-63
2024/01/25 10:42:06;;;;;;;38.42;8.05;;;;;;;9.95;84.64;102363.06;5037647;28;20771;-63
2024/01/25 10:44:32;;;;;;;34.72;9.85;;;;;;;10.06;84.55;102343.47;5024072;28;20050;-64
2024/01/25 10:46:58;;;;;;;31.17;7.43;;;;;;;10.16;84.40;102341.94;5031989;28;20033;-63
2024/01/25 10:49:24;;;;;;;36.38;8.20;;;;;;;10.19;84.35;102340.28;5027804;28;20554;-64
2024/01/25 10:51:50;;;;;;;34.15;7.95;;;;;;;10.21;84.01;102336.00;5043758;28;20066;-63
2024/01/25 10:54:16;;;;;;;28.70;8.75;;;;;;;10.23;82.48;102315.38;5036127;28;20033;-65
2024/01/25 10:56:43;;;;;;;42.83;8.75;;;;;;;10.20;82.33;102316.19;5027396;28;20037;-64
2024/01/25 10:59:10;;;;;;;40.00;9.00;;;;;;;10.22;81.76;102306.75;5029203;28;20029;-64
2024/01/25 11:01:36;;;;;;;37.22;8.73;;;;;;;10.24;82.10;102297.28;5047679;28;20033;-63
2024/01/25 11:04:01;;;;;;;29.92;8.07;;;;;;;10.34;82.13;102300.03;5030553;28;20045;-63
2024/01/25 11:06:27;;;;;;;39.08;7.85;;;;;;;10.34;82.48;102302.63;5040057;28;20594;-64
2024/01/25 11:09:07;;;;;;;31.80;8.00;;;;;;;10.31;80.48;102272.44;5038751;28;20507;-65
2024/01/25 11:11:32;;;;;;;33.58;8.07;;;;;;;10.29;80.54;102283.59;5020069;28;20080;-63
2024/01/25 11:13:59;;;;;;;33.78;8.50;;;;;;;10.35;80.82;102276.81;5027106;28;20489;-63